Map

Track Data

SID SEASON NUMBER BASIN SUBBASIN NAME ISO_TIME NATURE LAT LON WMO_WIND WMO_PRES WMO_AGENCY TRACK_TYPE DIST2LAND LANDFALL IFLAG USA_AGENCY USA_ATCF_ID USA_LAT USA_LON USA_RECORD USA_STATUS USA_WIND USA_PRES USA_SSHS USA_R34_NE USA_R34_SE USA_R34_SW USA_R34_NW USA_R50_NE USA_R50_SE USA_R50_SW USA_R50_NW USA_R64_NE USA_R64_SE USA_R64_SW USA_R64_NW USA_POCI USA_ROCI USA_RMW USA_EYE TOKYO_LAT TOKYO_LON TOKYO_GRADE TOKYO_WIND TOKYO_PRES TOKYO_R50_DIR TOKYO_R50_LONG TOKYO_R50_SHORT TOKYO_R30_DIR TOKYO_R30_LONG TOKYO_R30_SHORT TOKYO_LAND CMA_LAT CMA_LON CMA_CAT CMA_WIND CMA_PRES HKO_LAT HKO_LON HKO_CAT HKO_WIND HKO_PRES NEWDELHI_LAT NEWDELHI_LON NEWDELHI_GRADE NEWDELHI_WIND NEWDELHI_PRES NEWDELHI_CI NEWDELHI_DP NEWDELHI_POCI REUNION_LAT REUNION_LON REUNION_TYPE REUNION_WIND REUNION_PRES REUNION_TNUM REUNION_CI REUNION_RMW REUNION_R34_NE REUNION_R34_SE REUNION_R34_SW REUNION_R34_NW REUNION_R50_NE REUNION_R50_SE REUNION_R50_SW REUNION_R50_NW REUNION_R64_NE REUNION_R64_SE REUNION_R64_SW REUNION_R64_NW BOM_LAT BOM_LON BOM_TYPE BOM_WIND BOM_PRES BOM_TNUM BOM_CI BOM_RMW BOM_R34_NE BOM_R34_SE BOM_R34_SW BOM_R34_NW BOM_R50_NE BOM_R50_SE BOM_R50_SW BOM_R50_NW BOM_R64_NE BOM_R64_SE BOM_R64_SW BOM_R64_NW BOM_ROCI BOM_POCI BOM_EYE BOM_POS_METHOD BOM_PRES_METHOD NADI_LAT NADI_LON NADI_CAT NADI_WIND NADI_PRES WELLINGTON_LAT WELLINGTON_LON WELLINGTON_WIND WELLINGTON_PRES DS824_LAT DS824_LON DS824_STAGE DS824_WIND DS824_PRES TD9636_LAT TD9636_LON TD9636_STAGE TD9636_WIND TD9636_PRES TD9635_LAT TD9635_LON TD9635_WIND TD9635_PRES TD9635_ROCI NEUMANN_LAT NEUMANN_LON NEUMANN_CLASS NEUMANN_WIND NEUMANN_PRES MLC_LAT MLC_LON MLC_CLASS MLC_WIND MLC_PRES USA_GUST BOM_GUST BOM_GUST_PER REUNION_GUST REUNION_GUST_PER USA_SEAHGT USA_SEARAD_NE USA_SEARAD_SE USA_SEARAD_SW USA_SEARAD_NW STORM_SPEED STORM_DIR
1942080S15055 1942 15 SI MM NOT_NAMED 1942-03-21 06:00:00 NR -14.7000 55.4000 reunion main 529 507 _____O________ -1 -14.7000 55.4000 99 9.90000 4 249
1942080S15055 1942 15 SI MM NOT_NAMED 1942-03-21 09:00:00 NR -14.7738 55.1979 main 507 485 _____P________ -1 -14.7738 55.1979 99 4 249
1942080S15055 1942 15 SI MM NOT_NAMED 1942-03-21 12:00:00 NR -14.8476 54.9971 main 485 463 _____P________ -1 -14.8476 54.9971 99 4 249
1942080S15055 1942 15 SI MM NOT_NAMED 1942-03-21 15:00:00 NR -14.9216 54.7990 main 463 440 _____P________ -1 -14.9216 54.7990 99 4 249
1942080S15055 1942 15 SI MM NOT_NAMED 1942-03-21 18:00:00 NR -14.9959 54.6050 main 440 418 _____P________ -1 -14.9959 54.6050 99 4 248
1942080S15055 1942 15 SI MM NOT_NAMED 1942-03-21 21:00:00 NR -15.0707 54.4167 main 418 397 _____P________ -1 -15.0707 54.4167 99 4 247
1942080S15055 1942 15 SI MM NOT_NAMED 1942-03-22 00:00:00 NR -15.1462 54.2355 main 397 386 _____P________ -1 -15.1462 54.2355 99 4 246
1942080S15055 1942 15 SI MM NOT_NAMED 1942-03-22 03:00:00 NR -15.2226 54.0628 main 386 364 _____P________ -1 -15.2226 54.0628 99 4 245
1942080S15055 1942 15 SI MM NOT_NAMED 1942-03-22 06:00:00 NR -15.3000 53.9000 reunion main 364 353 _____O________ -1 -15.3000 53.9000 99 9.90000 3 243
1942080S15055 1942 15 SI MM NOT_NAMED 1942-03-22 09:00:00 NR -15.3789 53.7492 main 343 332 _____P________ -1 -15.3789 53.7492 99 3 240
1942080S15055 1942 15 SI MM NOT_NAMED 1942-03-22 12:00:00 NR -15.4607 53.6143 main 332 321 _____P________ -1 -15.4607 53.6143 99 3 235
1942080S15055 1942 15 SI MM NOT_NAMED 1942-03-22 15:00:00 NR -15.5469 53.5001 main 321 311 _____P________ -1 -15.5469 53.5001 99 3 227
1942080S15055 1942 15 SI MM NOT_NAMED 1942-03-22 18:00:00 NR -15.6392 53.4111 main 311 311 _____P________ -1 -15.6392 53.4111 99 2 217
1942080S15055 1942 15 SI MM NOT_NAMED 1942-03-22 21:00:00 NR -15.7390 53.3519 main 312 301 _____P________ -1 -15.7390 53.3519 99 2 201
1942080S15055 1942 15 SI MM NOT_NAMED 1942-03-23 00:00:00 NR -15.8481 53.3272 main 303 303 _____P________ -1 -15.8481 53.3272 99 2 0
1942080S15055 1942 15 SI MM NOT_NAMED 1942-03-23 03:00:00 NR -15.9679 53.3417 main 307 307 _____P________ -1 -15.9679 53.3417 99 3 164
1942080S15055 1942 15 SI MM NOT_NAMED 1942-03-23 06:00:00 NR -16.1000 53.4000 reunion main 320 320 _____O________ -1 -16.1000 53.4000 99 9.90000 3 153
1942080S15055 1942 15 SI MM NOT_NAMED 1942-03-23 09:00:00 NR -16.2664 53.5037 main 336 336 _____P________ -1 -16.2664 53.5037 99 4 145
1942080S15055 1942 15 SI MM NOT_NAMED 1942-03-23 12:00:00 NR -16.4478 53.6533 main 360 360 _____P________ -1 -16.4478 53.6533 99 5 139
1942080S15055 1942 15 SI MM NOT_NAMED 1942-03-23 15:00:00 NR -16.6379 53.8413 main 377 377 _____P________ -1 -16.6379 53.8413 99 5 134
1942080S15055 1942 15 SI MM NOT_NAMED 1942-03-23 18:00:00 NR -16.8304 54.0604 main 415 415 _____P________ -1 -16.8304 54.0604 99 6 131
1942080S15055 1942 15 SI MM NOT_NAMED 1942-03-23 21:00:00 NR -17.0192 54.3034 main 443 433 _____P________ -1 -17.0192 54.3034 99 6 127
1942080S15055 1942 15 SI MM NOT_NAMED 1942-03-24 00:00:00 NR -17.1978 54.5626 main 431 406 _____P________ -1 -17.1978 54.5626 99 6 124
1942080S15055 1942 15 SI MM NOT_NAMED 1942-03-24 03:00:00 NR -17.3601 54.8307 main 406 385 _____P________ -1 -17.3601 54.8307 99 6 121
1942080S15055 1942 15 SI MM NOT_NAMED 1942-03-24 06:00:00 NR -17.5000 55.1000 reunion main 385 363 _____O________ -1 -17.5000 55.1000 99 9.90000 5 116
1942080S15055 1942 15 SI MM NOT_NAMED 1942-03-24 09:00:00 NR -17.5844 55.3122 main 363 350 _____P________ -1 -17.5844 55.3122 99 4 110
1942080S15055 1942 15 SI MM NOT_NAMED 1942-03-24 12:00:00 NR -17.6463 55.5276 main 350 328 _____P________ -1 -17.6463 55.5276 99 4 105
1942080S15055 1942 15 SI MM NOT_NAMED 1942-03-24 15:00:00 NR -17.6920 55.7499 main 328 311 _____P________ -1 -17.6920 55.7499 99 4 101
1942080S15055 1942 15 SI MM NOT_NAMED 1942-03-24 18:00:00 NR -17.7280 55.9829 main 311 291 _____P________ -1 -17.7280 55.9829 99 5 99
1942080S15055 1942 15 SI MM NOT_NAMED 1942-03-24 21:00:00 NR -17.7605 56.2305 main 291 277 _____P________ -1 -17.7605 56.2305 99 5 98
1942080S15055 1942 15 SI MM NOT_NAMED 1942-03-25 00:00:00 NR -17.7958 56.4966 main 277 267 _____P________ -1 -17.7958 56.4966 99 5 99
1942080S15055 1942 15 SI MM NOT_NAMED 1942-03-25 03:00:00 NR -17.8402 56.7851 main 267 249 _____P________ -1 -17.8402 56.7851 99 6 100
1942080S15055 1942 15 SI MM NOT_NAMED 1942-03-25 06:00:00 NR -17.9000 57.1000 reunion main 249 235 _____O________ -1 -17.9000 57.1000 99 9.90000 7 104
1942080S15055 1942 15 SI MM NOT_NAMED 1942-03-25 09:00:00 NR -17.9980 57.4687 main 234 223 _____P________ -1 -17.9980 57.4687 99 8 106
1942080S15055 1942 15 SI MM NOT_NAMED 1942-03-25 12:00:00 NR -18.1085 57.8671 main 224 214 _____P________ -1 -18.1085 57.8671 99 8 107
1942080S15055 1942 15 SI MM NOT_NAMED 1942-03-25 15:00:00 NR -18.2291 58.2866 main 221 214 _____P________ -1 -18.2291 58.2866 99 8 107
1942080S15055 1942 15 SI MM NOT_NAMED 1942-03-25 18:00:00 NR -18.3574 58.7187 main 217 217 _____P________ -1 -18.3574 58.7187 99 9 108
1942080S15055 1942 15 SI MM NOT_NAMED 1942-03-25 21:00:00 NR -18.4909 59.1548 main 238 237 _____P________ -1 -18.4909 59.1548 99 9 108
1942080S15055 1942 15 SI MM NOT_NAMED 1942-03-26 00:00:00 NR -18.6273 59.5861 main 260 260 _____P________ -1 -18.6273 59.5861 99 9 109
1942080S15055 1942 15 SI MM NOT_NAMED 1942-03-26 03:00:00 NR -18.7644 60.0041 main 281 281 _____P________ -1 -18.7644 60.0041 99 8 109
1942080S15055 1942 15 SI MM NOT_NAMED 1942-03-26 06:00:00 NR -18.9000 60.4000 reunion main 313 313 _____O________ -1 -18.9000 60.4000 99 9.90000 7 111
1942080S15055 1942 15 SI MM NOT_NAMED 1942-03-26 09:00:00 NR -19.0184 60.6880 main 336 336 _____P________ -1 -19.0184 60.6880 99 6 114
1942080S15055 1942 15 SI MM NOT_NAMED 1942-03-26 12:00:00 NR -19.1365 60.9500 main 360 356 _____P________ -1 -19.1365 60.9500 99 5 116
1942080S15055 1942 15 SI MM NOT_NAMED 1942-03-26 15:00:00 NR -19.2556 61.2007 main 372 372 _____P________ -1 -19.2556 61.2007 99 5 117
1942080S15055 1942 15 SI MM NOT_NAMED 1942-03-26 18:00:00 NR -19.3767 61.4548 main 399 399 _____P________ -1 -19.3767 61.4548 99 6 116
1942080S15055 1942 15 SI MM NOT_NAMED 1942-03-26 21:00:00 NR -19.5009 61.7269 main 417 417 _____P________ -1 -19.5009 61.7269 99 6 115
1942080S15055 1942 15 SI MM NOT_NAMED 1942-03-27 00:00:00 NR -19.6289 62.0319 main 445 445 _____P________ -1 -19.6289 62.0319 99 7 113
1942080S15055 1942 15 SI MM NOT_NAMED 1942-03-27 03:00:00 NR -19.7618 62.3846 main 483 483 _____P________ -1 -19.7618 62.3846 99 8 111
1942080S15055 1942 15 SI MM NOT_NAMED 1942-03-27 06:00:00 NR -19.9000 62.8000 reunion main 523 523 _____O________ -1 -19.9000 62.8000 99 9.90000 10 108
1942080S15055 1942 15 SI MM NOT_NAMED 1942-03-27 09:00:00 NR -20.0650 63.4033 main 584 584 _____P________ -1 -20.0650 63.4033 99 12 106
1942080S15055 1942 15 SI MM NOT_NAMED 1942-03-27 12:00:00 NR -20.2361 64.0779 main 657 657 _____P________ -1 -20.2361 64.0779 99 14 105
1942080S15055 1942 15 SI MM NOT_NAMED 1942-03-27 15:00:00 NR -20.4077 64.7970 main 729 729 _____P________ -1 -20.4077 64.7970 99 14 104
1942080S15055 1942 15 SI MM NOT_NAMED 1942-03-27 18:00:00 NR -20.5744 65.5333 main 802 802 _____P________ -1 -20.5744 65.5333 99 14 103
1942080S15055 1942 15 SI MM NOT_NAMED 1942-03-27 21:00:00 NR -20.7313 66.2594 main 886 886 _____P________ -1 -20.7313 66.2594 99 14 103
1942080S15055 1942 15 SI MM NOT_NAMED 1942-03-28 00:00:00 NR -20.8738 66.9478 main 949 949 _____P________ -1 -20.8738 66.9478 99 13 102
1942080S15055 1942 15 SI MM NOT_NAMED 1942-03-28 03:00:00 NR -20.9979 67.5705 main 1022 1022 _____P________ -1 -20.9979 67.5705 99 11 102
1942080S15055 1942 15 SI MM NOT_NAMED 1942-03-28 06:00:00 NR -21.1000 68.1000 reunion main 1074 1074 _____O________ -1 -21.1000 68.1000 99 9.90000 9 102
1942080S15055 1942 15 SI MM NOT_NAMED 1942-03-28 09:00:00 NR -21.1778 68.5155 main 1116 1116 _____P________ -1 -21.1778 68.5155 99 7 101
1942080S15055 1942 15 SI MM NOT_NAMED 1942-03-28 12:00:00 NR -21.2339 68.8249 main 1147 1147 _____P________ -1 -21.2339 68.8249 99 5 101
1942080S15055 1942 15 SI MM NOT_NAMED 1942-03-28 15:00:00 NR -21.2719 69.0433 main 1169 1169 _____P________ -1 -21.2719 69.0433 99 3 100
1942080S15055 1942 15 SI MM NOT_NAMED 1942-03-28 18:00:00 NR -21.2951 69.1858 main 1189 1189 _____P________ -1 -21.2951 69.1858 99 2 99
1942080S15055 1942 15 SI MM NOT_NAMED 1942-03-28 21:00:00 NR -21.3065 69.2675 main 1200 1200 _____P________ -1 -21.3065 69.2675 99 1 97
1942080S15055 1942 15 SI MM NOT_NAMED 1942-03-29 00:00:00 NR -21.3092 69.3037 main 1200 1200 _____P________ -1 -21.3092 69.3037 99 0 89
1942080S15055 1942 15 SI MM NOT_NAMED 1942-03-29 03:00:00 NR -21.3060 69.3094 main 1200 1200 _____P________ -1 -21.3060 69.3094 99 0 0
1942080S15055 1942 15 SI MM NOT_NAMED 1942-03-29 06:00:00 NR -21.3000 69.3000 reunion main 1200 _____O________ -1 -21.3000 69.3000 99 9.90000 0 0

About IBTrACS Database

This database is a web-friendly format of International Best Track Archive for Climate Stewardship (IBTrACS), a global best track data archive curated by NOAA dating back to 1842.

Updated: 2021-11-26